Time;durP1;ratioP1;P1;durP2;ratioP2;P2;SDS_P1;SDS_P2;PMS_P1;PMS_P2;Temp;Humidity;BMP_temperature;BMP_pressure;BME280_temperature;BME280_humidity;BME280_pressure;Samples;Min_cycle;Max_cycle;Signal;HPM_P1;HPM_P2
2023/12/26 00:05:10;;;;;;;13.82;5.05;;;;;;;12.58;100.00;101807.66;10622754;27;20043;-82
2023/12/26 00:10:36;;;;;;;10.55;3.67;;;;;;;12.67;100.00;101812.28;10631266;27;20401;-82
2023/12/26 00:15:59;;;;;;;13.23;3.85;;;;;;;12.71;100.00;101792.97;10607555;27;20035;-82
2023/12/26 00:21:23;;;;;;;11.68;2.67;;;;;;;12.71;100.00;101807.09;10626053;27;20064;-81
2023/12/26 00:26:45;;;;;;;5.95;2.80;;;;;;;12.64;100.00;101804.25;10633600;27;20445;-81
2023/12/26 00:32:08;;;;;;;8.30;3.05;;;;;;;12.46;100.00;101811.78;10592722;27;20049;-80
2023/12/26 00:37:33;;;;;;;8.15;3.55;;;;;;;12.43;100.00;101814.34;10623158;27;20055;-81
2023/12/26 00:42:55;;;;;;;10.63;3.70;;;;;;;12.47;100.00;101813.56;10629275;27;20051;-81
2023/12/26 00:48:18;;;;;;;10.70;4.30;;;;;;;12.57;100.00;101808.53;10618939;27;20066;-81
2023/12/26 00:53:42;;;;;;;7.68;2.85;;;;;;;12.68;100.00;101792.88;10606808;27;20118;-80
2023/12/26 00:59:05;;;;;;;12.18;3.90;;;;;;;12.63;100.00;101800.72;10633465;27;20050;-81
2023/12/26 01:04:27;;;;;;;14.30;5.28;;;;;;;12.61;100.00;101813.03;10614890;27;20047;-81
2023/12/26 01:09:51;;;;;;;12.55;4.32;;;;;;;12.49;100.00;101807.44;10633367;27;20050;-82
2023/12/26 01:15:14;;;;;;;6.07;2.67;;;;;;;12.48;100.00;101808.28;10620385;27;20136;-81
2023/12/26 01:20:37;;;;;;;10.68;3.20;;;;;;;12.55;100.00;101804.94;10594828;27;20426;-81
2023/12/26 01:26:02;;;;;;;13.73;3.70;;;;;;;12.47;100.00;101797.69;10621064;27;20121;-81
2023/12/26 01:31:24;;;;;;;18.25;3.53;;;;;;;12.47;100.00;101793.25;10601077;27;20047;-80
2023/12/26 01:36:47;;;;;;;13.90;4.00;;;;;;;12.62;100.00;101787.44;10619516;27;20509;-82
2023/12/26 01:42:11;;;;;;;19.70;9.32;;;;;;;12.58;100.00;101785.59;10631632;27;20038;-82
2023/12/26 01:47:34;;;;;;;15.18;7.80;;;;;;;12.39;100.00;101773.66;10612120;27;20130;-82
2023/12/26 01:52:57;;;;;;;13.43;6.15;;;;;;;12.59;100.00;101763.53;10608496;27;20051;-81
2023/12/26 01:58:22;;;;;;;16.17;8.90;;;;;;;12.63;100.00;101771.59;10616780;27;20051;-82
2023/12/26 02:03:45;;;;;;;19.30;7.43;;;;;;;12.60;100.00;101768.84;10610536;27;20129;-83
2023/12/26 02:09:10;;;;;;;9.30;3.30;;;;;;;12.65;100.00;101764.56;10620850;27;20043;-84
2023/12/26 02:14:35;;;;;;;8.73;2.80;;;;;;;12.64;100.00;101759.22;10609312;27;20054;-82
2023/12/26 02:19:58;;;;;;;9.55;2.55;;;;;;;12.64;100.00;101757.47;10606233;27;20046;-81
2023/12/26 02:25:23;;;;;;;11.30;2.72;;;;;;;12.69;100.00;101760.22;10609595;27;20047;-82
2023/12/26 02:30:47;;;;;;;6.38;2.75;;;;;;;12.84;100.00;101752.63;10630833;27;20070;-81
2023/12/26 02:36:09;;;;;;;10.27;2.80;;;;;;;12.96;100.00;101738.75;10599750;27;20048;-81
2023/12/26 02:41:33;;;;;;;11.10;2.58;;;;;;;13.28;100.00;101748.31;10606433;27;20065;-81
2023/12/26 02:46:58;;;;;;;6.68;3.80;;;;;;;13.66;100.00;101749.03;10606558;27;20057;-81
2023/12/26 02:52:20;;;;;;;9.10;3.17;;;;;;;14.07;100.00;101752.44;10603810;27;20059;-80
2023/12/26 02:57:44;;;;;;;14.00;3.05;;;;;;;14.22;100.00;101743.84;10590128;27;20061;-81
2023/12/26 03:03:07;;;;;;;6.95;2.30;;;;;;;14.32;100.00;101744.03;10610384;27;20046;-82
2023/12/26 03:08:29;;;;;;;7.68;2.75;;;;;;;14.62;100.00;101748.97;10622410;27;20042;-81
2023/12/26 03:13:54;;;;;;;8.77;2.70;;;;;;;14.80;100.00;101751.00;10637029;27;20047;-81
2023/12/26 03:19:17;;;;;;;9.32;2.40;;;;;;;14.98;100.00;101750.34;10608832;27;20058;-81
2023/12/26 03:24:40;;;;;;;11.52;2.63;;;;;;;15.08;100.00;101742.53;10617095;27;20039;-81
2023/12/26 03:30:05;;;;;;;8.40;2.40;;;;;;;14.93;100.00;101750.28;10648013;27;20047;-82
2023/12/26 03:35:27;;;;;;;10.48;2.97;;;;;;;14.98;100.00;101748.56;10573161;27;20399;-83
2023/12/26 03:40:50;;;;;;;12.60;4.00;;;;;;;15.01;100.00;101751.28;10602102;27;20057;-83
2023/12/26 03:46:17;;;;;;;7.95;2.63;;;;;;;14.75;100.00;101753.59;10581457;27;20206;-83
2023/12/26 03:51:39;;;;;;;13.55;3.38;;;;;;;14.44;100.00;101761.06;10582391;27;20047;-83
2023/12/26 03:57:03;;;;;;;11.43;2.88;;;;;;;14.32;100.00;101770.59;10631115;27;20042;-82
2023/12/26 04:02:27;;;;;;;9.15;2.42;;;;;;;14.15;100.00;101777.38;10588718;27;20051;-83
2023/12/26 04:07:51;;;;;;;12.13;2.60;;;;;;;14.04;100.00;101780.72;10581280;27;20262;-82
2023/12/26 04:13:15;;;;;;;12.40;3.65;;;;;;;13.86;100.00;101784.81;10612017;27;20035;-83
2023/12/26 04:18:40;;;;;;;7.15;2.72;;;;;;;13.76;100.00;101790.84;10613377;27;20047;-82
2023/12/26 04:24:02;;;;;;;8.10;2.75;;;;;;;13.87;100.00;101799.88;10622653;27;20050;-81
2023/12/26 04:29:25;;;;;;;10.32;3.35;;;;;;;13.98;100.00;101809.81;10616965;27;20047;-82
2023/12/26 04:34:49;;;;;;;11.00;3.20;;;;;;;13.95;100.00;101815.97;10621844;27;20120;-82
2023/12/26 04:40:12;;;;;;;10.05;3.45;;;;;;;13.95;100.00;101821.28;10608235;27;20050;-84
2023/12/26 04:45:37;;;;;;;11.50;3.42;;;;;;;13.87;100.00;101817.56;10620705;27;20047;-81
2023/12/26 04:51:02;;;;;;;17.38;9.40;;;;;;;13.69;100.00;101828.72;10610377;27;20095;-81
2023/12/26 04:56:26;;;;;;;16.02;5.47;;;;;;;13.48;100.00;101838.91;10617212;27;20054;-82
2023/12/26 05:01:49;;;;;;;15.35;4.72;;;;;;;13.36;100.00;101831.56;10617771;27;20053;-82
2023/12/26 05:07:13;;;;;;;12.48;4.10;;;;;;;13.32;100.00;101832.38;10585421;27;20047;-81
2023/12/26 05:12:36;;;;;;;14.05;4.53;;;;;;;13.22;100.00;101833.03;10618180;27;20041;-82
2023/12/26 05:17:59;;;;;;;12.55;4.20;;;;;;;13.13;100.00;101841.66;10588743;27;20052;-80
2023/12/26 05:23:23;;;;;;;18.60;4.57;;;;;;;13.19;100.00;101850.66;10603863;27;20051;-80
2023/12/26 05:28:46;;;;;;;22.02;8.82;;;;;;;13.31;100.00;101850.91;10627718;27;20056;-81
2023/12/26 05:34:09;;;;;;;17.20;4.90;;;;;;;13.51;100.00;101846.94;10646197;27;20403;-80
2023/12/26 05:39:33;;;;;;;12.05;5.35;;;;;;;13.56;100.00;101854.13;10594514;27;20070;-81
2023/12/26 05:44:56;;;;;;;19.33;10.57;;;;;;;13.47;100.00;101859.22;10628488;27;20047;-81
2023/12/26 05:50:19;;;;;;;18.67;8.00;;;;;;;13.53;100.00;101867.31;10599878;27;20499;-80
2023/12/26 05:55:45;;;;;;;18.50;5.53;;;;;;;13.58;100.00;101872.72;10589386;27;20077;-81
2023/12/26 06:01:10;;;;;;;14.55;8.43;;;;;;;13.82;100.00;101874.97;10619820;27;20088;-81
2023/12/26 06:06:33;;;;;;;14.27;6.28;;;;;;;13.92;100.00;101883.16;10590613;27;20601;-81
2023/12/26 06:11:58;;;;;;;10.40;4.55;;;;;;;14.04;100.00;101890.50;10608637;27;20038;-81
2023/12/26 06:17:22;;;;;;;14.20;6.55;;;;;;;14.22;100.00;101887.28;10584219;28;20099;-80
2023/12/26 06:22:44;;;;;;;16.75;6.00;;;;;;;14.55;100.00;101887.91;10587837;28;20438;-82
2023/12/26 06:28:08;;;;;;;30.58;21.48;;;;;;;14.81;100.00;101892.78;10548851;28;20074;-83
2023/12/26 06:33:31;;;;;;;13.45;6.28;;;;;;;15.34;100.00;101894.50;10596922;28;20043;-82
2023/12/26 06:38:56;;;;;;;17.08;7.32;;;;;;;15.68;100.00;101903.00;10588097;28;20134;-82
2023/12/26 06:44:20;;;;;;;9.02;3.30;;;;;;;15.77;100.00;101909.31;10548941;28;20384;-81
2023/12/26 06:49:45;;;;;;;12.38;4.07;;;;;;;16.30;100.00;101911.69;10583246;27;20058;-79
2023/12/26 06:55:08;;;;;;;29.67;18.75;;;;;;;16.79;100.00;101910.44;10635707;27;20054;-81
2023/12/26 07:00:32;;;;;;;24.08;15.10;;;;;;;17.38;100.00;101907.31;10631733;27;20130;-82
2023/12/26 07:05:55;;;;;;;32.83;19.13;;;;;;;18.00;100.00;101910.31;10599550;27;20055;-81
2023/12/26 07:11:18;;;;;;;16.75;7.20;;;;;;;18.41;100.00;101912.22;10599576;27;20555;-82
2023/12/26 07:16:42;;;;;;;26.80;20.67;;;;;;;19.02;100.00;101916.75;10610524;27;20043;-81
2023/12/26 07:22:05;;;;;;;31.48;22.27;;;;;;;19.29;100.00;101914.94;10594942;27;20084;-81
2023/12/26 07:27:28;;;;;;;21.52;12.85;;;;;;;19.82;100.00;101923.72;10615384;27;20146;-81
2023/12/26 07:32:52;;;;;;;22.58;11.77;;;;;;;20.21;100.00;101924.47;10619796;27;20043;-82
2023/12/26 07:38:16;;;;;;;24.90;12.38;;;;;;;20.65;100.00;101933.16;10621332;27;20051;-81
2023/12/26 07:43:38;;;;;;;24.20;11.65;;;;;;;21.28;100.00;101928.19;10609760;27;20073;-81
2023/12/26 07:49:02;;;;;;;20.67;10.82;;;;;;;22.01;100.00;101930.06;10591728;27;20479;-82
2023/12/26 07:54:25;;;;;;;16.55;9.80;;;;;;;22.55;100.00;101931.09;10593987;27;20047;-83
2023/12/26 07:59:47;;;;;;;23.27;11.20;;;;;;;23.04;100.00;101936.63;10631573;27;20043;-82
2023/12/26 08:05:12;;;;;;;19.27;13.75;;;;;;;23.49;100.00;101935.88;10610372;27;20035;-83
2023/12/26 08:10:35;;;;;;;16.23;9.20;;;;;;;24.18;100.00;101936.22;10611860;27;20043;-81
2023/12/26 08:15:58;;;;;;;47.63;33.70;;;;;;;24.84;100.00;101941.03;10592238;27;20058;-83
2023/12/26 08:21:22;;;;;;;33.08;18.27;;;;;;;25.15;100.00;101936.66;10601524;27;20047;-82
2023/12/26 08:26:44;;;;;;;27.85;17.27;;;;;;;25.42;99.55;101933.22;10602876;27;20077;-83
2023/12/26 08:32:07;;;;;;;25.83;15.60;;;;;;;25.52;97.83;101927.56;10586847;27;20602;-83
2023/12/26 08:37:31;;;;;;;41.15;24.77;;;;;;;25.53;95.90;101927.53;10606353;27;20050;-83
2023/12/26 08:42:54;;;;;;;28.98;14.07;;;;;;;25.49;93.91;101912.28;10602404;27;20050;-83
2023/12/26 08:48:16;;;;;;;27.50;17.88;;;;;;;25.57;91.86;101910.31;10586217;27;20099;-83
2023/12/26 08:53:42;;;;;;;23.85;12.60;;;;;;;25.83;88.46;101906.84;10601693;27;20532;-84
2023/12/26 08:59:05;;;;;;;25.23;9.85;;;;;;;26.51;81.31;101907.47;10587214;27;20058;-83
2023/12/26 09:04:27;;;;;;;14.82;5.72;;;;;;;26.92;73.70;101900.69;10584837;27;20047;-86
2023/12/26 09:09:52;;;;;;;9.40;4.65;;;;;;;29.19;56.20;101898.25;10578670;27;20070;-82
2023/12/26 09:15:15;;;;;;;9.50;4.65;;;;;;;31.02;45.60;101897.75;10633042;27;20047;-82
2023/12/26 09:20:37;;;;;;;11.65;5.72;;;;;;;32.91;40.35;101886.31;10603779;27;20054;-82
2023/12/26 09:26:05;;;;;;;13.82;4.60;;;;;;;33.87;34.22;101883.13;10619984;27;20516;-81
2023/12/26 09:31:28;;;;;;;4.00;1.95;;;;;;;30.84;35.04;101870.47;10605661;27;20058;-81
2023/12/26 09:36:51;;;;;;;4.93;1.77;;;;;;;28.42;39.32;101875.19;10602101;27;20089;-82
2023/12/26 09:42:20;;;;;;;4.95;1.80;;;;;;;28.97;39.33;101861.16;10625910;27;20047;-82
2023/12/26 09:47:44;;;;;;;10.88;1.85;;;;;;;29.70;38.01;101856.94;10626498;27;20046;-82
2023/12/26 09:53:09;;;;;;;4.97;2.10;;;;;;;30.56;36.12;101850.13;10616773;27;20376;-82
2023/12/26 09:58:34;;;;;;;6.47;2.03;;;;;;;29.63;36.84;101854.56;10626076;27;20502;-82
2023/12/26 10:03:57;;;;;;;7.15;1.52;;;;;;;28.93;36.54;101852.25;10604750;27;20112;-81
2023/12/26 10:09:19;;;;;;;6.95;1.63;;;;;;;28.20;37.05;101841.72;10622793;27;20051;-85
2023/12/26 10:14:43;;;;;;;6.47;1.45;;;;;;;27.72;38.75;101830.91;10620206;27;20198;-84
2023/12/26 10:20:09;;;;;;;3.88;1.60;;;;;;;26.88;39.59;101827.66;10608656;27;20046;-85
2023/12/26 10:25:34;;;;;;;7.32;1.80;;;;;;;27.53;37.69;101802.72;10610085;27;20051;-82
2023/12/26 10:30:58;;;;;;;5.28;1.55;;;;;;;26.47;39.75;101815.50;10593819;27;20046;-85
2023/12/26 10:36:21;;;;;;;6.20;1.73;;;;;;;25.49;41.60;101801.41;10574368;27;20058;-86
2023/12/26 10:41:45;;;;;;;6.15;1.80;;;;;;;25.32;42.32;101796.50;10609951;27;20530;-84
2023/12/26 10:47:13;;;;;;;5.07;1.25;;;;;;;24.89;43.14;101798.59;10611182;27;20494;-86
2023/12/26 10:52:41;;;;;;;5.25;1.42;;;;;;;25.01;42.83;101790.16;10582155;28;20552;-86
2023/12/26 10:58:28;;;;;;;4.53;1.25;;;;;;;25.18;42.30;101787.00;10557383;28;20058;-83
2023/12/26 13:55:43;;;;;;;3.63;1.25;;;;;;;21.66;71.53;101711.88;10601031;27;20050;-83
2023/12/26 14:01:43;;;;;;;5.63;1.63;;;;;;;21.34;77.36;101712.28;10612768;27;20075;-83
2023/12/26 14:07:44;;;;;;;8.40;1.60;;;;;;;21.23;82.74;101708.88;10608724;27;20385;-84
2023/12/26 14:13:44;;;;;;;5.75;1.73;;;;;;;21.04;88.87;101705.50;10636663;27;20053;-82
2023/12/26 14:19:45;;;;;;;10.73;2.15;;;;;;;20.99;92.50;101705.56;10598530;27;20060;-83
2023/12/26 14:25:47;;;;;;;7.47;1.50;;;;;;;20.85;98.39;101712.88;10547438;28;20428;-83
2023/12/26 14:31:47;;;;;;;8.40;1.60;;;;;;;20.64;100.00;101708.66;10546846;28;20062;-83
2023/12/26 14:37:49;;;;;;;7.20;2.55;;;;;;;20.56;100.00;101714.97;10664927;27;20058;-84
2023/12/26 14:43:53;;;;;;;6.82;2.05;;;;;;;20.19;100.00;101715.31;10629526;27;20047;-84
2023/12/26 14:49:53;;;;;;;8.02;1.90;;;;;;;20.12;100.00;101721.63;10635271;27;20047;-84
2023/12/26 14:55:53;;;;;;;5.20;1.67;;;;;;;19.86;100.00;101711.09;10632940;27;20053;-84
2023/12/26 15:01:53;;;;;;;8.57;1.98;;;;;;;19.71;100.00;101723.72;10645308;27;20146;-84
2023/12/26 15:07:18;;;;;;;4.18;1.70;;;;;;;19.66;100.00;101721.06;10636725;27;20161;-83
2023/12/26 15:12:41;;;;;;;9.43;1.75;;;;;;;19.64;100.00;101720.19;10596301;27;20039;-84
2023/12/26 15:18:04;;;;;;;7.70;2.30;;;;;;;19.75;100.00;101712.09;10610856;27;20039;-81
2023/12/26 15:23:28;;;;;;;8.55;2.88;;;;;;;19.75;100.00;101721.03;10615807;27;20550;-80
2023/12/26 15:28:51;;;;;;;10.73;3.38;;;;;;;19.78;100.00;101723.66;10612196;27;20720;-81
2023/12/26 15:34:13;;;;;;;55.13;36.38;;;;;;;19.83;100.00;101715.59;10592501;27;20060;-83
2023/12/26 15:39:40;;;;;;;10.60;5.38;;;;;;;19.85;100.00;101708.44;10600436;27;20126;-82
2023/12/26 15:45:03;;;;;;;6.80;1.80;;;;;;;19.58;100.00;101711.28;10624972;27;20039;-83
2023/12/26 15:50:26;;;;;;;6.47;2.17;;;;;;;19.66;100.00;101728.22;10605614;27;20043;-83
2023/12/26 15:55:50;;;;;;;8.60;2.13;;;;;;;19.87;100.00;101741.47;10630311;27;20066;-83
2023/12/26 16:01:16;;;;;;;9.60;2.10;;;;;;;19.49;100.00;101736.38;10604731;27;20047;-83
2023/12/26 16:06:39;;;;;;;10.10;2.53;;;;;;;18.45;100.00;101748.19;10584774;27;20068;-83
2023/12/26 16:12:04;;;;;;;11.10;6.68;;;;;;;17.67;100.00;101758.81;10586743;27;20039;-81
2023/12/26 16:17:27;;;;;;;17.80;6.25;;;;;;;17.37;100.00;101764.94;10614087;27;20047;-81
2023/12/26 16:22:50;;;;;;;14.65;4.80;;;;;;;17.34;100.00;101766.69;10647481;27;20065;-82
2023/12/26 16:28:14;;;;;;;21.38;15.25;;;;;;;17.65;100.00;101776.66;10606134;27;20039;-81
2023/12/26 16:33:36;;;;;;;15.50;9.45;;;;;;;17.83;100.00;101775.78;10614425;27;20119;-82
2023/12/26 16:38:59;;;;;;;29.80;24.05;;;;;;;17.88;100.00;101787.38;10616595;27;20070;-82
2023/12/26 16:44:23;;;;;;;33.17;24.73;;;;;;;17.98;100.00;101780.28;10597581;27;20062;-82
2023/12/26 16:49:46;;;;;;;20.67;16.98;;;;;;;18.05;100.00;101782.94;10618225;27;20605;-83
2023/12/26 16:55:09;;;;;;;15.70;10.23;;;;;;;18.10;100.00;101794.56;10612723;27;20068;-82
2023/12/26 17:00:34;;;;;;;8.52;3.38;;;;;;;18.03;100.00;101791.88;10606010;27;20106;-82
2023/12/26 17:05:56;;;;;;;8.57;2.35;;;;;;;17.79;100.00;101788.22;10607887;27;20132;-81
2023/12/26 17:11:19;;;;;;;10.63;2.90;;;;;;;17.78;100.00;101788.25;10625102;27;20490;-81
2023/12/26 17:16:43;;;;;;;14.27;7.95;;;;;;;17.66;100.00;101788.19;10574668;27;20398;-79
2023/12/26 17:22:10;;;;;;;27.42;15.27;;;;;;;17.50;100.00;101777.44;10604978;27;20043;-81
2023/12/26 17:28:03;;;;;;;16.48;8.27;;;;;;;17.40;100.00;101796.06;10601645;27;20096;-81
2023/12/26 17:33:27;;;;;;;21.92;11.32;;;;;;;17.38;100.00;101793.44;10622881;27;20138;-79
2023/12/26 17:38:50;;;;;;;21.98;12.70;;;;;;;17.68;100.00;101791.78;10573064;27;20085;-80
2023/12/26 17:44:13;;;;;;;24.77;15.85;;;;;;;17.89;100.00;101795.41;10582841;27;20039;-80
2023/12/26 17:49:37;;;;;;;22.08;13.38;;;;;;;17.93;100.00;101793.63;10611126;27;20070;-80
2023/12/26 17:54:59;;;;;;;23.17;15.07;;;;;;;17.84;100.00;101801.63;10604601;27;20419;-80
2023/12/26 18:00:22;;;;;;;14.80;5.55;;;;;;;17.99;100.00;101798.06;10603193;27;20479;-81
2023/12/26 18:05:47;;;;;;;11.63;3.83;;;;;;;18.07;100.00;101794.53;10588418;27;20624;-80
2023/12/26 18:11:10;;;;;;;15.88;9.18;;;;;;;17.89;100.00;101798.06;10599418;27;20146;-80
2023/12/26 18:16:32;;;;;;;18.23;9.93;;;;;;;17.92;100.00;101787.38;10615349;27;20484;-81
2023/12/26 18:21:57;;;;;;;16.30;9.02;;;;;;;17.97;100.00;101787.41;10609360;27;20043;-81
2023/12/26 18:27:19;;;;;;;17.92;8.98;;;;;;;18.01;100.00;101781.16;10533441;28;20051;-81
2023/12/26 18:32:42;;;;;;;30.83;22.17;;;;;;;18.08;100.00;101782.97;10619907;27;20446;-81
2023/12/26 18:38:07;;;;;;;18.08;10.82;;;;;;;18.14;100.00;101782.06;10636848;27;20047;-81
2023/12/26 18:43:29;;;;;;;20.80;14.63;;;;;;;18.18;100.00;101782.06;10638673;27;20078;-80
2023/12/26 18:48:52;;;;;;;18.73;15.07;;;;;;;18.24;100.00;101775.84;10620791;27;20530;-80
2023/12/26 18:54:16;;;;;;;17.23;10.18;;;;;;;18.25;100.00;101774.94;10584648;27;20090;-80
2023/12/26 18:59:39;;;;;;;23.08;15.07;;;;;;;18.28;100.00;101767.81;10599667;27;20042;-80
2023/12/26 19:05:03;;;;;;;15.38;6.15;;;;;;;18.45;100.00;101766.91;10590848;27;20055;-79
2023/12/26 19:10:27;;;;;;;12.02;6.60;;;;;;;18.55;100.00;101766.03;10598067;27;20071;-80
2023/12/26 19:15:50;;;;;;;11.43;5.88;;;;;;;18.63;100.00;101762.50;10626223;27;20053;-80
2023/12/26 19:21:13;;;;;;;9.93;4.25;;;;;;;18.72;100.00;101761.56;10608630;27;20057;-80
2023/12/26 19:26:37;;;;;;;13.52;5.78;;;;;;;18.67;100.00;101766.94;10594922;27;20069;-80
2023/12/26 19:32:00;;;;;;;7.78;3.90;;;;;;;18.52;100.00;101766.91;10607941;27;20418;-80
2023/12/26 19:37:22;;;;;;;8.38;3.13;;;;;;;18.38;100.00;101765.16;10595859;27;20047;-81
2023/12/26 19:42:46;;;;;;;10.90;3.80;;;;;;;18.29;100.00;101769.63;10620575;27;20558;-78
2023/12/26 19:48:10;;;;;;;11.82;7.70;;;;;;;18.19;100.00;101765.13;10594534;27;20046;-80
2023/12/26 19:53:33;;;;;;;11.25;4.45;;;;;;;18.11;100.00;101756.25;10607342;27;20089;-80
2023/12/26 19:58:58;;;;;;;13.40;8.05;;;;;;;17.96;100.00;101758.91;10623421;27;20047;-80
2023/12/26 20:04:20;;;;;;;8.60;4.03;;;;;;;17.96;100.00;101760.69;10639166;27;20153;-80
2023/12/26 20:09:43;;;;;;;13.65;7.35;;;;;;;18.04;100.00;101761.59;10600699;27;20111;-81
2023/12/26 20:15:10;;;;;;;11.90;5.80;;;;;;;18.15;100.00;101758.03;10594068;27;20057;-79
2023/12/26 20:20:33;;;;;;;14.80;8.45;;;;;;;18.17;100.00;101752.69;10633399;27;20035;-81
2023/12/26 20:25:55;;;;;;;77.30;46.03;;;;;;;18.18;100.00;101749.97;10612270;27;20499;-81
2023/12/26 20:31:19;;;;;;;16.40;8.90;;;;;;;18.33;100.00;101752.66;10584550;27;20067;-82
2023/12/26 20:36:43;;;;;;;22.45;14.88;;;;;;;18.40;100.00;101747.31;10622855;27;20126;-81
2023/12/26 20:42:07;;;;;;;80.47;55.55;;;;;;;18.41;100.00;101749.09;10613531;27;20043;-82
2023/12/26 20:47:33;;;;;;;24.38;15.85;;;;;;;18.38;100.00;101738.44;10627890;27;20047;-81
2023/12/26 20:52:56;;;;;;;14.70;8.70;;;;;;;18.39;100.00;101735.72;10569767;27;20046;-81
2023/12/26 20:58:21;;;;;;;12.82;4.95;;;;;;;18.31;100.00;101732.19;10599590;27;20065;-81
2023/12/26 21:03:46;;;;;;;14.25;8.68;;;;;;;18.15;100.00;101736.63;10590507;27;20039;-81
2023/12/26 21:09:09;;;;;;;11.07;5.95;;;;;;;18.06;100.00;101725.03;10564823;27;20044;-80
2023/12/26 21:14:33;;;;;;;5.70;3.92;;;;;;;17.93;100.00;101740.16;10576599;27;20063;-80
2023/12/26 21:19:57;;;;;;;6.72;3.47;;;;;;;17.79;100.00;101748.16;10575363;27;20075;-79
2023/12/26 21:25:20;;;;;;;5.93;1.98;;;;;;;18.00;100.00;101743.75;10577713;27;20055;-80
2023/12/26 21:30:45;;;;;;;2.65;1.45;;;;;;;18.05;100.00;101744.66;10576364;28;20062;-81
2023/12/26 21:36:18;;;;;;;5.05;1.90;;;;;;;18.33;100.00;101736.63;10576719;27;20560;-80
2023/12/26 21:41:42;;;;;;;5.05;2.00;;;;;;;18.42;100.00;101746.44;10618550;27;20047;-80
2023/12/26 21:47:05;;;;;;;6.68;1.60;;;;;;;18.38;100.00;101744.63;10604113;27;20071;-80
2023/12/26 21:52:30;;;;;;;9.60;2.10;;;;;;;18.33;100.00;101739.31;10615508;27;20051;-81
2023/12/26 21:57:53;;;;;;;7.60;1.80;;;;;;;18.47;100.00;101744.63;10584640;27;20036;-80
2023/12/26 22:03:16;;;;;;;8.73;3.97;;;;;;;18.41;100.00;101739.31;10582599;27;20036;-80
2023/12/26 22:08:40;;;;;;;7.43;2.30;;;;;;;18.17;100.00;101734.88;10585289;27;20483;-82
2023/12/26 22:14:02;;;;;;;7.07;3.08;;;;;;;17.86;100.00;101736.59;10602406;27;20070;-80
2023/12/26 22:19:26;;;;;;;7.65;2.50;;;;;;;17.34;100.00;101732.88;10606261;28;20558;-81
2023/12/26 22:24:51;;;;;;;7.75;3.03;;;;;;;16.99;100.00;101726.53;10587888;28;20043;-81
2023/12/26 22:30:13;;;;;;;7.53;2.67;;;;;;;16.72;100.00;101722.84;10602694;28;20525;-80
2023/12/26 22:35:39;;;;;;;9.07;2.65;;;;;;;16.49;100.00;101731.50;10549881;28;20071;-80
2023/12/26 22:41:07;;;;;;;;;;;;;;;16.48;100.00;101717.28;10583492;28;20128;-81
2023/12/26 22:46:29;;;;;;;7.15;2.97;;;;;;;16.41;100.00;101718.13;10590468;28;19920;-80
2023/12/26 22:51:52;;;;;;;13.68;4.43;;;;;;;16.44;100.00;101727.94;10587923;28;20065;-81
2023/12/26 22:57:16;;;;;;;13.95;3.55;;;;;;;16.37;100.00;101721.66;10578378;28;20051;-80
2023/12/26 23:02:39;;;;;;;5.75;2.50;;;;;;;16.55;100.00;101723.56;10616052;28;20051;-80
2023/12/26 23:08:01;;;;;;;9.23;2.83;;;;;;;16.58;100.00;101726.25;10584851;28;20043;-80
2023/12/26 23:13:25;;;;;;;9.32;2.55;;;;;;;16.60;100.00;101733.44;10597364;28;20044;-80
2023/12/26 23:18:47;;;;;;;9.98;3.13;;;;;;;16.77;100.00;101733.50;10564739;28;20052;-79
2023/12/26 23:24:10;;;;;;;7.88;3.15;;;;;;;16.65;100.00;101739.69;10604807;28;20124;-80
2023/12/26 23:29:35;;;;;;;7.60;2.42;;;;;;;16.22;100.00;101733.09;10588753;27;20488;-80
2023/12/26 23:34:58;;;;;;;6.88;2.85;;;;;;;15.90;100.00;101735.47;10570307;27;20051;-80
2023/12/26 23:40:20;;;;;;;5.20;2.03;;;;;;;15.77;100.00;101738.00;10601360;27;20074;-80
2023/12/26 23:45:44;;;;;;;4.95;1.60;;;;;;;15.82;100.00;101742.50;10615624;27;20073;-80
2023/12/26 23:51:07;;;;;;;12.63;2.47;;;;;;;16.13;100.00;101748.13;10619946;27;20749;-79
2023/12/26 23:56:29;;;;;;;7.38;2.42;;;;;;;15.98;100.00;101753.31;10625671;27;20077;-79
